sensor_id;sensor_type;location;lat;lon;timestamp;P1;durP1;ratioP1;P2;durP2;ratioP2
8650;SDS011;4363;52.346;14.516;2022-07-17T00:00:20;292.63;;;139.27;;
8650;SDS011;4363;52.346;14.516;2022-07-17T00:02:46;318.33;;;148.60;;
8650;SDS011;4363;52.346;14.516;2022-07-17T00:05:15;325.80;;;152.27;;
8650;SDS011;4363;52.346;14.516;2022-07-17T00:07:41;319.97;;;149.77;;
8650;SDS011;4363;52.346;14.516;2022-07-17T00:10:07;309.10;;;146.07;;
8650;SDS011;4363;52.346;14.516;2022-07-17T00:12:34;298.43;;;141.63;;
8650;SDS011;4363;52.346;14.516;2022-07-17T00:15:00;306.30;;;145.93;;
8650;SDS011;4363;52.346;14.516;2022-07-17T00:17:26;308.23;;;146.63;;
8650;SDS011;4363;52.346;14.516;2022-07-17T00:19:52;318.60;;;150.40;;
8650;SDS011;4363;52.346;14.516;2022-07-17T00:22:18;317.57;;;148.07;;
8650;SDS011;4363;52.346;14.516;2022-07-17T00:24:45;292.27;;;139.17;;
8650;SDS011;4363;52.346;14.516;2022-07-17T00:27:11;313.87;;;147.50;;
8650;SDS011;4363;52.346;14.516;2022-07-17T00:29:37;332.37;;;155.53;;
8650;SDS011;4363;52.346;14.516;2022-07-17T00:32:03;313.73;;;148.03;;
8650;SDS011;4363;52.346;14.516;2022-07-17T00:34:29;318.87;;;147.90;;
8650;SDS011;4363;52.346;14.516;2022-07-17T00:36:55;312.33;;;145.87;;
8650;SDS011;4363;52.346;14.516;2022-07-17T00:39:21;300.30;;;142.30;;
8650;SDS011;4363;52.346;14.516;2022-07-17T00:41:47;305.07;;;144.07;;
8650;SDS011;4363;52.346;14.516;2022-07-17T00:44:13;308.57;;;144.40;;
8650;SDS011;4363;52.346;14.516;2022-07-17T00:46:39;315.20;;;147.70;;
8650;SDS011;4363;52.346;14.516;2022-07-17T00:49:06;310.10;;;146.13;;
8650;SDS011;4363;52.346;14.516;2022-07-17T00:51:32;326.50;;;153.13;;
8650;SDS011;4363;52.346;14.516;2022-07-17T00:53:58;314.47;;;147.47;;
8650;SDS011;4363;52.346;14.516;2022-07-17T00:56:24;313.10;;;147.27;;
8650;SDS011;4363;52.346;14.516;2022-07-17T00:58:52;307.00;;;144.37;;
8650;SDS011;4363;52.346;14.516;2022-07-17T01:01:18;292.50;;;140.30;;
8650;SDS011;4363;52.346;14.516;2022-07-17T01:03:44;324.13;;;151.73;;
8650;SDS011;4363;52.346;14.516;2022-07-17T01:06:10;307.80;;;145.33;;
8650;SDS011;4363;52.346;14.516;2022-07-17T01:08:36;304.93;;;143.57;;
8650;SDS011;4363;52.346;14.516;2022-07-17T01:11:02;302.50;;;142.73;;
8650;SDS011;4363;52.346;14.516;2022-07-17T01:13:29;297.93;;;142.30;;
8650;SDS011;4363;52.346;14.516;2022-07-17T01:15:55;313.87;;;149.83;;
8650;SDS011;4363;52.346;14.516;2022-07-17T01:18:22;321.13;;;151.20;;
8650;SDS011;4363;52.346;14.516;2022-07-17T01:20:48;302.97;;;144.03;;
8650;SDS011;4363;52.346;14.516;2022-07-17T01:23:15;298.53;;;141.57;;
8650;SDS011;4363;52.346;14.516;2022-07-17T01:25:41;302.53;;;143.37;;
8650;SDS011;4363;52.346;14.516;2022-07-17T01:28:07;316.10;;;151.30;;
8650;SDS011;4363;52.346;14.516;2022-07-17T01:30:33;303.77;;;145.43;;
8650;SDS011;4363;52.346;14.516;2022-07-17T01:32:59;287.30;;;138.73;;
8650;SDS011;4363;52.346;14.516;2022-07-17T01:35:26;295.67;;;142.47;;
8650;SDS011;4363;52.346;14.516;2022-07-17T01:37:51;310.43;;;148.43;;
8650;SDS011;4363;52.346;14.516;2022-07-17T01:40:17;295.93;;;141.20;;
8650;SDS011;4363;52.346;14.516;2022-07-17T01:42:48;299.33;;;142.63;;
8650;SDS011;4363;52.346;14.516;2022-07-17T01:45:15;296.57;;;143.40;;
8650;SDS011;4363;52.346;14.516;2022-07-17T01:47:41;318.10;;;153.37;;
8650;SDS011;4363;52.346;14.516;2022-07-17T01:50:08;264.67;;;133.57;;
8650;SDS011;4363;52.346;14.516;2022-07-17T01:52:35;278.97;;;138.37;;
8650;SDS011;4363;52.346;14.516;2022-07-17T01:55:02;282.60;;;138.37;;
8650;SDS011;4363;52.346;14.516;2022-07-17T01:57:28;284.77;;;141.40;;
8650;SDS011;4363;52.346;14.516;2022-07-17T01:59:54;282.97;;;139.73;;
8650;SDS011;4363;52.346;14.516;2022-07-17T02:02:20;283.83;;;139.90;;
8650;SDS011;4363;52.346;14.516;2022-07-17T02:04:46;287.93;;;141.53;;
8650;SDS011;4363;52.346;14.516;2022-07-17T02:07:12;274.30;;;136.27;;
8650;SDS011;4363;52.346;14.516;2022-07-17T02:09:38;271.10;;;136.40;;
8650;SDS011;4363;52.346;14.516;2022-07-17T02:12:05;267.33;;;134.23;;
8650;SDS011;4363;52.346;14.516;2022-07-17T02:14:31;271.93;;;135.63;;
8650;SDS011;4363;52.346;14.516;2022-07-17T02:16:57;282.67;;;139.73;;
8650;SDS011;4363;52.346;14.516;2022-07-17T02:19:23;259.10;;;132.23;;
8650;SDS011;4363;52.346;14.516;2022-07-17T02:21:49;276.83;;;138.17;;
8650;SDS011;4363;52.346;14.516;2022-07-17T02:24:15;268.20;;;135.67;;
8650;SDS011;4363;52.346;14.516;2022-07-17T02:26:41;274.97;;;139.90;;
8650;SDS011;4363;52.346;14.516;2022-07-17T02:29:07;267.57;;;137.57;;
8650;SDS011;4363;52.346;14.516;2022-07-17T02:31:33;265.97;;;135.73;;
8650;SDS011;4363;52.346;14.516;2022-07-17T02:33:59;224.23;;;120.93;;
8650;SDS011;4363;52.346;14.516;2022-07-17T02:36:25;248.77;;;129.97;;
8650;SDS011;4363;52.346;14.516;2022-07-17T02:38:51;240.30;;;126.27;;
8650;SDS011;4363;52.346;14.516;2022-07-17T02:41:17;252.77;;;131.73;;
8650;SDS011;4363;52.346;14.516;2022-07-17T02:43:43;239.10;;;126.13;;
8650;SDS011;4363;52.346;14.516;2022-07-17T02:46:09;238.27;;;124.53;;
8650;SDS011;4363;52.346;14.516;2022-07-17T02:48:35;233.43;;;127.13;;
8650;SDS011;4363;52.346;14.516;2022-07-17T02:51:01;222.93;;;121.00;;
8650;SDS011;4363;52.346;14.516;2022-07-17T02:53:27;249.53;;;130.13;;
8650;SDS011;4363;52.346;14.516;2022-07-17T02:55:53;260.27;;;133.80;;
8650;SDS011;4363;52.346;14.516;2022-07-17T02:58:19;239.13;;;124.63;;
8650;SDS011;4363;52.346;14.516;2022-07-17T03:00:45;240.30;;;126.23;;
8650;SDS011;4363;52.346;14.516;2022-07-17T03:03:10;237.67;;;124.83;;
8650;SDS011;4363;52.346;14.516;2022-07-17T03:05:36;208.60;;;117.40;;
8650;SDS011;4363;52.346;14.516;2022-07-17T03:08:02;253.93;;;133.27;;
8650;SDS011;4363;52.346;14.516;2022-07-17T03:10:28;236.83;;;127.40;;
8650;SDS011;4363;52.346;14.516;2022-07-17T03:12:54;236.00;;;124.23;;
8650;SDS011;4363;52.346;14.516;2022-07-17T03:15:20;246.27;;;127.17;;
8650;SDS011;4363;52.346;14.516;2022-07-17T03:17:46;263.80;;;133.23;;
8650;SDS011;4363;52.346;14.516;2022-07-17T03:20:13;252.37;;;129.17;;
8650;SDS011;4363;52.346;14.516;2022-07-17T03:22:39;240.93;;;124.73;;
8650;SDS011;4363;52.346;14.516;2022-07-17T03:25:05;243.27;;;127.10;;
8650;SDS011;4363;52.346;14.516;2022-07-17T03:27:31;234.17;;;123.17;;
8650;SDS011;4363;52.346;14.516;2022-07-17T03:29:57;253.40;;;129.63;;
8650;SDS011;4363;52.346;14.516;2022-07-17T03:32:23;208.03;;;115.20;;
8650;SDS011;4363;52.346;14.516;2022-07-17T03:34:49;235.57;;;125.53;;
8650;SDS011;4363;52.346;14.516;2022-07-17T03:37:15;234.07;;;124.77;;
8650;SDS011;4363;52.346;14.516;2022-07-17T03:39:41;243.40;;;126.83;;
8650;SDS011;4363;52.346;14.516;2022-07-17T03:42:07;226.70;;;121.67;;
8650;SDS011;4363;52.346;14.516;2022-07-17T03:44:33;223.73;;;120.40;;
8650;SDS011;4363;52.346;14.516;2022-07-17T03:46:59;232.37;;;123.13;;
8650;SDS011;4363;52.346;14.516;2022-07-17T03:49:25;222.20;;;119.57;;
8650;SDS011;4363;52.346;14.516;2022-07-17T03:51:51;236.83;;;124.03;;
8650;SDS011;4363;52.346;14.516;2022-07-17T03:54:17;203.93;;;115.00;;
8650;SDS011;4363;52.346;14.516;2022-07-17T03:56:43;219.93;;;119.77;;
8650;SDS011;4363;52.346;14.516;2022-07-17T03:59:09;210.20;;;118.13;;
8650;SDS011;4363;52.346;14.516;2022-07-17T04:01:35;228.73;;;121.63;;
8650;SDS011;4363;52.346;14.516;2022-07-17T04:04:01;220.37;;;118.13;;
8650;SDS011;4363;52.346;14.516;2022-07-17T04:06:27;217.33;;;117.73;;
8650;SDS011;4363;52.346;14.516;2022-07-17T04:08:53;197.50;;;113.93;;
8650;SDS011;4363;52.346;14.516;2022-07-17T04:11:18;243.03;;;126.90;;
8650;SDS011;4363;52.346;14.516;2022-07-17T04:13:45;224.80;;;122.33;;
8650;SDS011;4363;52.346;14.516;2022-07-17T04:16:11;203.20;;;114.40;;
8650;SDS011;4363;52.346;14.516;2022-07-17T04:18:37;221.97;;;122.03;;
8650;SDS011;4363;52.346;14.516;2022-07-17T04:21:05;220.63;;;118.93;;
8650;SDS011;4363;52.346;14.516;2022-07-17T04:23:31;240.80;;;126.20;;
8650;SDS011;4363;52.346;14.516;2022-07-17T04:25:57;227.77;;;120.13;;
8650;SDS011;4363;52.346;14.516;2022-07-17T04:28:23;210.90;;;115.80;;
8650;SDS011;4363;52.346;14.516;2022-07-17T04:30:49;202.77;;;115.33;;
8650;SDS011;4363;52.346;14.516;2022-07-17T04:33:16;214.40;;;117.77;;
8650;SDS011;4363;52.346;14.516;2022-07-17T04:35:42;249.40;;;131.60;;
8650;SDS011;4363;52.346;14.516;2022-07-17T04:38:08;229.03;;;121.00;;
8650;SDS011;4363;52.346;14.516;2022-07-17T04:40:35;219.03;;;118.47;;
8650;SDS011;4363;52.346;14.516;2022-07-17T04:43:02;213.13;;;116.40;;
8650;SDS011;4363;52.346;14.516;2022-07-17T04:45:28;223.43;;;121.87;;
8650;SDS011;4363;52.346;14.516;2022-07-17T04:47:54;238.43;;;125.47;;
8650;SDS011;4363;52.346;14.516;2022-07-17T04:50:20;225.97;;;122.37;;
8650;SDS011;4363;52.346;14.516;2022-07-17T04:52:46;235.37;;;125.87;;
8650;SDS011;4363;52.346;14.516;2022-07-17T04:55:12;234.00;;;125.70;;
8650;SDS011;4363;52.346;14.516;2022-07-17T04:57:38;216.10;;;118.00;;
8650;SDS011;4363;52.346;14.516;2022-07-17T05:00:05;223.27;;;120.63;;
8650;SDS011;4363;52.346;14.516;2022-07-17T05:02:31;222.67;;;120.17;;
8650;SDS011;4363;52.346;14.516;2022-07-17T05:04:57;234.13;;;124.33;;
8650;SDS011;4363;52.346;14.516;2022-07-17T05:07:23;238.63;;;127.67;;
8650;SDS011;4363;52.346;14.516;2022-07-17T05:09:49;245.53;;;127.77;;
8650;SDS011;4363;52.346;14.516;2022-07-17T05:12:15;255.70;;;131.07;;
8650;SDS011;4363;52.346;14.516;2022-07-17T05:14:41;238.30;;;126.20;;
8650;SDS011;4363;52.346;14.516;2022-07-17T05:17:07;244.50;;;127.07;;
8650;SDS011;4363;52.346;14.516;2022-07-17T05:19:33;218.47;;;119.70;;
8650;SDS011;4363;52.346;14.516;2022-07-17T05:22:00;229.47;;;122.20;;
8650;SDS011;4363;52.346;14.516;2022-07-17T05:24:26;233.70;;;124.53;;
8650;SDS011;4363;52.346;14.516;2022-07-17T05:26:52;234.17;;;124.87;;
8650;SDS011;4363;52.346;14.516;2022-07-17T05:29:18;237.57;;;126.10;;
8650;SDS011;4363;52.346;14.516;2022-07-17T05:31:44;202.60;;;115.53;;
8650;SDS011;4363;52.346;14.516;2022-07-17T05:34:10;231.23;;;123.60;;
8650;SDS011;4363;52.346;14.516;2022-07-17T05:36:36;230.00;;;123.33;;
8650;SDS011;4363;52.346;14.516;2022-07-17T05:39:02;234.47;;;125.77;;
8650;SDS011;4363;52.346;14.516;2022-07-17T05:41:28;242.63;;;130.47;;
8650;SDS011;4363;52.346;14.516;2022-07-17T05:43:54;226.17;;;124.40;;
8650;SDS011;4363;52.346;14.516;2022-07-17T05:46:20;235.03;;;130.00;;
8650;SDS011;4363;52.346;14.516;2022-07-17T05:48:45;240.90;;;129.67;;
8650;SDS011;4363;52.346;14.516;2022-07-17T05:51:11;259.80;;;140.27;;
8650;SDS011;4363;52.346;14.516;2022-07-17T05:53:37;264.03;;;137.23;;
8650;SDS011;4363;52.346;14.516;2022-07-17T05:56:03;231.50;;;129.80;;
8650;SDS011;4363;52.346;14.516;2022-07-17T05:58:29;226.17;;;124.23;;
8650;SDS011;4363;52.346;14.516;2022-07-17T06:00:55;285.63;;;150.87;;
8650;SDS011;4363;52.346;14.516;2022-07-17T06:03:21;289.33;;;149.97;;
8650;SDS011;4363;52.346;14.516;2022-07-17T06:05:47;272.17;;;139.87;;
8650;SDS011;4363;52.346;14.516;2022-07-17T06:08:13;252.03;;;133.37;;
8650;SDS011;4363;52.346;14.516;2022-07-17T06:10:39;234.80;;;131.67;;
8650;SDS011;4363;52.346;14.516;2022-07-17T06:13:05;262.67;;;141.33;;
8650;SDS011;4363;52.346;14.516;2022-07-17T06:15:31;277.50;;;147.00;;
8650;SDS011;4363;52.346;14.516;2022-07-17T06:18:03;262.40;;;136.87;;
8650;SDS011;4363;52.346;14.516;2022-07-17T06:20:29;261.57;;;142.07;;
8650;SDS011;4363;52.346;14.516;2022-07-17T06:22:56;266.10;;;145.20;;
8650;SDS011;4363;52.346;14.516;2022-07-17T06:25:22;272.53;;;143.97;;
8650;SDS011;4363;52.346;14.516;2022-07-17T06:27:48;277.93;;;143.43;;
8650;SDS011;4363;52.346;14.516;2022-07-17T06:30:14;256.50;;;137.03;;
8650;SDS011;4363;52.346;14.516;2022-07-17T06:32:41;272.07;;;144.27;;
8650;SDS011;4363;52.346;14.516;2022-07-17T06:35:07;261.47;;;139.50;;
8650;SDS011;4363;52.346;14.516;2022-07-17T06:37:33;239.73;;;136.07;;
8650;SDS011;4363;52.346;14.516;2022-07-17T06:39:59;272.83;;;146.83;;
8650;SDS011;4363;52.346;14.516;2022-07-17T06:42:25;268.00;;;150.43;;
8650;SDS011;4363;52.346;14.516;2022-07-17T06:44:51;268.60;;;147.57;;
8650;SDS011;4363;52.346;14.516;2022-07-17T06:47:17;276.40;;;150.03;;
8650;SDS011;4363;52.346;14.516;2022-07-17T06:49:43;273.53;;;146.50;;
8650;SDS011;4363;52.346;14.516;2022-07-17T06:52:09;273.47;;;149.60;;
8650;SDS011;4363;52.346;14.516;2022-07-17T06:54:35;277.73;;;152.67;;
8650;SDS011;4363;52.346;14.516;2022-07-17T06:57:01;279.70;;;149.77;;
8650;SDS011;4363;52.346;14.516;2022-07-17T06:59:27;352.33;;;183.32;;
8650;SDS011;4363;52.346;14.516;2022-07-17T07:01:53;323.27;;;164.97;;
8650;SDS011;4363;52.346;14.516;2022-07-17T07:04:19;320.07;;;167.97;;
8650;SDS011;4363;52.346;14.516;2022-07-17T07:06:45;327.73;;;172.00;;
8650;SDS011;4363;52.346;14.516;2022-07-17T07:09:11;323.03;;;174.00;;
8650;SDS011;4363;52.346;14.516;2022-07-17T07:11:37;294.77;;;156.00;;
8650;SDS011;4363;52.346;14.516;2022-07-17T07:14:04;299.37;;;161.83;;
8650;SDS011;4363;52.346;14.516;2022-07-17T07:16:30;303.70;;;155.93;;
8650;SDS011;4363;52.346;14.516;2022-07-17T07:18:56;290.77;;;151.23;;
8650;SDS011;4363;52.346;14.516;2022-07-17T07:21:22;280.50;;;149.00;;
8650;SDS011;4363;52.346;14.516;2022-07-17T07:23:49;304.70;;;154.73;;
8650;SDS011;4363;52.346;14.516;2022-07-17T07:26:15;306.80;;;158.90;;
8650;SDS011;4363;52.346;14.516;2022-07-17T07:28:41;305.30;;;155.68;;
8650;SDS011;4363;52.346;14.516;2022-07-17T07:31:07;301.50;;;162.90;;
8650;SDS011;4363;52.346;14.516;2022-07-17T07:33:34;301.07;;;152.30;;
8650;SDS011;4363;52.346;14.516;2022-07-17T07:36:00;306.52;;;155.70;;
8650;SDS011;4363;52.346;14.516;2022-07-17T07:38:26;324.40;;;174.68;;
8650;SDS011;4363;52.346;14.516;2022-07-17T07:40:52;334.53;;;168.70;;
8650;SDS011;4363;52.346;14.516;2022-07-17T07:43:18;344.03;;;178.53;;
8650;SDS011;4363;52.346;14.516;2022-07-17T07:45:44;320.65;;;174.25;;
8650;SDS011;4363;52.346;14.516;2022-07-17T07:48:10;315.30;;;168.25;;
8650;SDS011;4363;52.346;14.516;2022-07-17T07:50:36;313.73;;;168.35;;
8650;SDS011;4363;52.346;14.516;2022-07-17T07:53:02;346.03;;;179.00;;
8650;SDS011;4363;52.346;14.516;2022-07-17T07:55:28;335.17;;;173.97;;
8650;SDS011;4363;52.346;14.516;2022-07-17T07:58:00;329.70;;;168.17;;
8650;SDS011;4363;52.346;14.516;2022-07-17T08:00:26;339.83;;;172.23;;
8650;SDS011;4363;52.346;14.516;2022-07-17T08:02:52;331.20;;;172.57;;
8650;SDS011;4363;52.346;14.516;2022-07-17T08:05:18;343.23;;;179.57;;
8650;SDS011;4363;52.346;14.516;2022-07-17T08:07:44;328.57;;;173.03;;
8650;SDS011;4363;52.346;14.516;2022-07-17T08:10:10;310.25;;;165.27;;
8650;SDS011;4363;52.346;14.516;2022-07-17T08:12:36;331.00;;;176.47;;
8650;SDS011;4363;52.346;14.516;2022-07-17T08:15:02;341.70;;;179.77;;
8650;SDS011;4363;52.346;14.516;2022-07-17T08:17:28;345.57;;;181.80;;
8650;SDS011;4363;52.346;14.516;2022-07-17T08:19:54;343.77;;;186.88;;
8650;SDS011;4363;52.346;14.516;2022-07-17T08:22:20;337.50;;;184.60;;
8650;SDS011;4363;52.346;14.516;2022-07-17T08:24:46;332.88;;;182.40;;
8650;SDS011;4363;52.346;14.516;2022-07-17T08:27:12;315.98;;;172.52;;
8650;SDS011;4363;52.346;14.516;2022-07-17T08:29:38;314.53;;;170.67;;
8650;SDS011;4363;52.346;14.516;2022-07-17T08:32:04;341.67;;;173.88;;
8650;SDS011;4363;52.346;14.516;2022-07-17T08:34:30;320.77;;;168.35;;
8650;SDS011;4363;52.346;14.516;2022-07-17T08:36:56;325.85;;;175.02;;
8650;SDS011;4363;52.346;14.516;2022-07-17T08:39:22;317.02;;;172.98;;
8650;SDS011;4363;52.346;14.516;2022-07-17T08:41:48;325.15;;;170.05;;
8650;SDS011;4363;52.346;14.516;2022-07-17T08:44:14;328.90;;;175.93;;
8650;SDS011;4363;52.346;14.516;2022-07-17T08:46:40;335.30;;;179.85;;
8650;SDS011;4363;52.346;14.516;2022-07-17T08:49:07;333.65;;;172.93;;
8650;SDS011;4363;52.346;14.516;2022-07-17T08:51:34;392.23;;;199.45;;
8650;SDS011;4363;52.346;14.516;2022-07-17T08:54:00;408.08;;;205.32;;
8650;SDS011;4363;52.346;14.516;2022-07-17T08:56:26;420.77;;;207.63;;
8650;SDS011;4363;52.346;14.516;2022-07-17T08:58:53;392.43;;;202.90;;
8650;SDS011;4363;52.346;14.516;2022-07-17T09:01:20;371.35;;;188.52;;
8650;SDS011;4363;52.346;14.516;2022-07-17T09:03:55;382.40;;;198.63;;
8650;SDS011;4363;52.346;14.516;2022-07-17T09:06:21;348.65;;;180.88;;
8650;SDS011;4363;52.346;14.516;2022-07-17T09:08:47;332.20;;;175.20;;
8650;SDS011;4363;52.346;14.516;2022-07-17T09:11:14;414.75;;;216.52;;
8650;SDS011;4363;52.346;14.516;2022-07-17T09:13:42;417.30;;;214.85;;
8650;SDS011;4363;52.346;14.516;2022-07-17T09:16:11;436.52;;;223.95;;
8650;SDS011;4363;52.346;14.516;2022-07-17T09:18:47;422.35;;;220.63;;
8650;SDS011;4363;52.346;14.516;2022-07-17T09:21:18;308.05;;;165.27;;
8650;SDS011;4363;52.346;14.516;2022-07-17T09:23:44;325.52;;;169.75;;
8650;SDS011;4363;52.346;14.516;2022-07-17T09:26:11;312.38;;;160.85;;
8650;SDS011;4363;52.346;14.516;2022-07-17T09:28:46;335.57;;;173.27;;
8650;SDS011;4363;52.346;14.516;2022-07-17T09:31:12;325.95;;;164.73;;
8650;SDS011;4363;52.346;14.516;2022-07-17T09:33:40;329.88;;;170.25;;
8650;SDS011;4363;52.346;14.516;2022-07-17T09:36:07;375.03;;;192.37;;
8650;SDS011;4363;52.346;14.516;2022-07-17T09:38:34;349.83;;;186.53;;
8650;SDS011;4363;52.346;14.516;2022-07-17T09:41:04;330.20;;;172.48;;
8650;SDS011;4363;52.346;14.516;2022-07-17T09:43:52;334.75;;;174.02;;
8650;SDS011;4363;52.346;14.516;2022-07-17T09:48:45;328.58;;;171.15;;
8650;SDS011;4363;52.346;14.516;2022-07-17T09:51:18;329.27;;;170.25;;
8650;SDS011;4363;52.346;14.516;2022-07-17T09:53:45;314.65;;;170.20;;
8650;SDS011;4363;52.346;14.516;2022-07-17T09:56:15;331.33;;;186.55;;
8650;SDS011;4363;52.346;14.516;2022-07-17T09:58:43;322.00;;;178.05;;
8650;SDS011;4363;52.346;14.516;2022-07-17T10:01:11;333.17;;;189.10;;
8650;SDS011;4363;52.346;14.516;2022-07-17T10:03:38;348.52;;;186.68;;
8650;SDS011;4363;52.346;14.516;2022-07-17T10:06:04;316.40;;;177.38;;
8650;SDS011;4363;52.346;14.516;2022-07-17T10:08:30;324.65;;;182.43;;
8650;SDS011;4363;52.346;14.516;2022-07-17T10:10:57;330.45;;;186.38;;
8650;SDS011;4363;52.346;14.516;2022-07-17T10:13:23;337.45;;;190.85;;
8650;SDS011;4363;52.346;14.516;2022-07-17T10:15:50;342.48;;;189.70;;
8650;SDS011;4363;52.346;14.516;2022-07-17T10:18:16;346.08;;;202.85;;
8650;SDS011;4363;52.346;14.516;2022-07-17T10:20:42;319.33;;;180.90;;
8650;SDS011;4363;52.346;14.516;2022-07-17T10:23:12;333.80;;;179.83;;
8650;SDS011;4363;52.346;14.516;2022-07-17T10:25:38;350.77;;;193.15;;
8650;SDS011;4363;52.346;14.516;2022-07-17T10:28:04;354.93;;;187.00;;
8650;SDS011;4363;52.346;14.516;2022-07-17T10:30:30;356.67;;;200.55;;
8650;SDS011;4363;52.346;14.516;2022-07-17T10:33:00;356.33;;;203.68;;
8650;SDS011;4363;52.346;14.516;2022-07-17T10:35:26;321.30;;;184.20;;
8650;SDS011;4363;52.346;14.516;2022-07-17T10:37:52;355.50;;;195.90;;
8650;SDS011;4363;52.346;14.516;2022-07-17T10:40:19;333.67;;;190.93;;
8650;SDS011;4363;52.346;14.516;2022-07-17T10:42:53;337.10;;;190.23;;
8650;SDS011;4363;52.346;14.516;2022-07-17T10:47:57;343.77;;;196.50;;
8650;SDS011;4363;52.346;14.516;2022-07-17T10:50:25;340.50;;;192.07;;
8650;SDS011;4363;52.346;14.516;2022-07-17T10:53:05;354.05;;;198.38;;
8650;SDS011;4363;52.346;14.516;2022-07-17T10:55:32;333.77;;;189.37;;
8650;SDS011;4363;52.346;14.516;2022-07-17T10:57:59;332.58;;;182.15;;
8650;SDS011;4363;52.346;14.516;2022-07-17T11:00:25;342.50;;;189.38;;
8650;SDS011;4363;52.346;14.516;2022-07-17T11:02:51;348.25;;;191.63;;
8650;SDS011;4363;52.346;14.516;2022-07-17T11:05:17;352.10;;;204.80;;
8650;SDS011;4363;52.346;14.516;2022-07-17T11:07:56;339.85;;;193.13;;
8650;SDS011;4363;52.346;14.516;2022-07-17T11:10:23;328.07;;;183.60;;
8650;SDS011;4363;52.346;14.516;2022-07-17T11:12:53;346.15;;;190.43;;
8650;SDS011;4363;52.346;14.516;2022-07-17T11:15:19;344.05;;;192.55;;
8650;SDS011;4363;52.346;14.516;2022-07-17T11:17:46;350.40;;;199.33;;
8650;SDS011;4363;52.346;14.516;2022-07-17T11:20:12;332.80;;;184.47;;
8650;SDS011;4363;52.346;14.516;2022-07-17T11:22:39;340.47;;;195.47;;
8650;SDS011;4363;52.346;14.516;2022-07-17T11:25:05;351.10;;;201.60;;
8650;SDS011;4363;52.346;14.516;2022-07-17T11:27:32;357.80;;;200.93;;
8650;SDS011;4363;52.346;14.516;2022-07-17T11:29:59;362.13;;;215.05;;
8650;SDS011;4363;52.346;14.516;2022-07-17T11:32:36;351.23;;;204.20;;
8650;SDS011;4363;52.346;14.516;2022-07-17T11:35:02;336.52;;;194.85;;
8650;SDS011;4363;52.346;14.516;2022-07-17T11:37:29;362.60;;;203.38;;
8650;SDS011;4363;52.346;14.516;2022-07-17T11:39:55;336.17;;;190.02;;
8650;SDS011;4363;52.346;14.516;2022-07-17T11:42:22;359.20;;;212.73;;
8650;SDS011;4363;52.346;14.516;2022-07-17T11:44:52;356.17;;;212.80;;
8650;SDS011;4363;52.346;14.516;2022-07-17T11:47:19;355.23;;;213.43;;
8650;SDS011;4363;52.346;14.516;2022-07-17T11:49:46;352.70;;;207.43;;
8650;SDS011;4363;52.346;14.516;2022-07-17T11:52:12;350.08;;;213.18;;
8650;SDS011;4363;52.346;14.516;2022-07-17T11:54:55;350.67;;;211.65;;
8650;SDS011;4363;52.346;14.516;2022-07-17T11:57:22;362.33;;;199.27;;
8650;SDS011;4363;52.346;14.516;2022-07-17T11:59:48;341.45;;;193.00;;
8650;SDS011;4363;52.346;14.516;2022-07-17T12:02:18;338.67;;;197.13;;
8650;SDS011;4363;52.346;14.516;2022-07-17T12:07:15;349.50;;;206.35;;
8650;SDS011;4363;52.346;14.516;2022-07-17T12:09:41;345.98;;;210.68;;
8650;SDS011;4363;52.346;14.516;2022-07-17T12:12:17;356.17;;;220.82;;
8650;SDS011;4363;52.346;14.516;2022-07-17T12:14:53;346.27;;;216.13;;
8650;SDS011;4363;52.346;14.516;2022-07-17T12:17:19;346.00;;;220.07;;
8650;SDS011;4363;52.346;14.516;2022-07-17T12:19:45;339.40;;;218.50;;
8650;SDS011;4363;52.346;14.516;2022-07-17T12:22:11;342.85;;;211.30;;
8650;SDS011;4363;52.346;14.516;2022-07-17T12:24:38;337.58;;;207.10;;
8650;SDS011;4363;52.346;14.516;2022-07-17T12:27:06;349.77;;;225.82;;
8650;SDS011;4363;52.346;14.516;2022-07-17T12:29:32;375.42;;;223.88;;
8650;SDS011;4363;52.346;14.516;2022-07-17T12:34:31;351.88;;;216.65;;
8650;SDS011;4363;52.346;14.516;2022-07-17T12:36:57;375.15;;;225.82;;
8650;SDS011;4363;52.346;14.516;2022-07-17T12:39:23;361.95;;;224.18;;
8650;SDS011;4363;52.346;14.516;2022-07-17T12:41:49;379.45;;;238.48;;
8650;SDS011;4363;52.346;14.516;2022-07-17T12:44:15;346.98;;;222.80;;
8650;SDS011;4363;52.346;14.516;2022-07-17T12:46:41;346.02;;;224.63;;
8650;SDS011;4363;52.346;14.516;2022-07-17T12:49:07;354.95;;;221.45;;
8650;SDS011;4363;52.346;14.516;2022-07-17T12:51:33;364.65;;;243.68;;
8650;SDS011;4363;52.346;14.516;2022-07-17T12:53:59;368.52;;;241.75;;
8650;SDS011;4363;52.346;14.516;2022-07-17T12:56:25;358.52;;;238.98;;
8650;SDS011;4363;52.346;14.516;2022-07-17T12:58:52;338.83;;;232.52;;
8650;SDS011;4363;52.346;14.516;2022-07-17T13:01:18;349.20;;;234.40;;
8650;SDS011;4363;52.346;14.516;2022-07-17T13:03:44;344.10;;;230.00;;
8650;SDS011;4363;52.346;14.516;2022-07-17T13:06:11;370.40;;;237.15;;
8650;SDS011;4363;52.346;14.516;2022-07-17T13:08:37;378.13;;;244.07;;
8650;SDS011;4363;52.346;14.516;2022-07-17T13:11:03;382.75;;;249.27;;
8650;SDS011;4363;52.346;14.516;2022-07-17T13:13:29;353.58;;;228.18;;
8650;SDS011;4363;52.346;14.516;2022-07-17T13:15:56;359.52;;;228.98;;
8650;SDS011;4363;52.346;14.516;2022-07-17T13:18:22;359.02;;;233.23;;
8650;SDS011;4363;52.346;14.516;2022-07-17T13:20:48;362.40;;;237.15;;
8650;SDS011;4363;52.346;14.516;2022-07-17T13:23:14;354.60;;;240.95;;
8650;SDS011;4363;52.346;14.516;2022-07-17T13:25:40;356.58;;;240.38;;
8650;SDS011;4363;52.346;14.516;2022-07-17T13:28:08;366.40;;;240.20;;
8650;SDS011;4363;52.346;14.516;2022-07-17T13:30:34;383.38;;;262.42;;
8650;SDS011;4363;52.346;14.516;2022-07-17T13:33:00;370.92;;;255.80;;
8650;SDS011;4363;52.346;14.516;2022-07-17T13:35:26;355.95;;;249.43;;
8650;SDS011;4363;52.346;14.516;2022-07-17T13:37:52;383.67;;;263.73;;
8650;SDS011;4363;52.346;14.516;2022-07-17T13:40:18;363.27;;;256.35;;
8650;SDS011;4363;52.346;14.516;2022-07-17T13:42:45;365.05;;;257.33;;
8650;SDS011;4363;52.346;14.516;2022-07-17T13:45:11;367.23;;;254.93;;
8650;SDS011;4363;52.346;14.516;2022-07-17T13:47:37;361.27;;;239.73;;
8650;SDS011;4363;52.346;14.516;2022-07-17T13:50:03;377.48;;;257.42;;
8650;SDS011;4363;52.346;14.516;2022-07-17T13:52:29;377.30;;;258.90;;
8650;SDS011;4363;52.346;14.516;2022-07-17T13:54:55;379.52;;;256.95;;
8650;SDS011;4363;52.346;14.516;2022-07-17T13:57:22;351.90;;;248.90;;
8650;SDS011;4363;52.346;14.516;2022-07-17T13:59:48;355.83;;;251.45;;
8650;SDS011;4363;52.346;14.516;2022-07-17T14:02:14;331.48;;;233.85;;
8650;SDS011;4363;52.346;14.516;2022-07-17T14:04:40;363.35;;;256.70;;
8650;SDS011;4363;52.346;14.516;2022-07-17T14:07:06;347.80;;;245.85;;
8650;SDS011;4363;52.346;14.516;2022-07-17T14:09:32;352.10;;;245.75;;
8650;SDS011;4363;52.346;14.516;2022-07-17T14:11:58;360.55;;;260.92;;
8650;SDS011;4363;52.346;14.516;2022-07-17T14:14:24;355.23;;;247.52;;